Time;durP1;ratioP1;P1;durP2;ratioP2;P2;SDS_P1;SDS_P2;PMS_P1;PMS_P2;Temp;Humidity;BMP_temperature;BMP_pressure;BME280_temperature;BME280_humidity;BME280_pressure;Samples;Min_cycle;Max_cycle;Signal;HPM_P1;HPM_P2
2022/11/29 00:00:07;;;;;;;4.15;3.38;;;;;;;3.95;69.16;94819.38;4164112;28;20257;-54
2022/11/29 00:02:09;;;;;;;5.05;3.58;;;;;;;3.94;69.46;94810.78;4164082;28;20064;-57
2022/11/29 00:04:11;;;;;;;5.93;3.35;;;;;;;4.00;69.29;94817.25;4169077;28;20500;-52
2022/11/29 00:06:15;;;;;;;5.97;4.05;;;;;;;4.02;68.72;94820.56;4165385;28;20403;-55
2022/11/29 00:08:17;;;;;;;5.50;3.42;;;;;;;3.98;69.27;94814.81;4165645;28;20461;-56
2022/11/29 00:10:19;;;;;;;4.97;3.65;;;;;;;3.87;69.16;94812.16;4172524;28;20056;-53
2022/11/29 00:12:21;;;;;;;4.80;3.45;;;;;;;3.88;69.60;94816.44;4169031;28;20136;-52
2022/11/29 00:14:24;;;;;;;6.28;3.58;;;;;;;3.97;69.03;94815.72;4165449;28;20049;-54
2022/11/29 00:16:26;;;;;;;4.50;3.45;;;;;;;3.90;69.17;94817.13;4169241;28;20438;-55
2022/11/29 00:18:27;;;;;;;4.43;3.13;;;;;;;3.96;69.51;94814.09;4163537;28;20056;-57
2022/11/29 00:20:29;;;;;;;5.13;3.78;;;;;;;3.95;68.56;94820.19;4165796;28;20636;-54
2022/11/29 00:22:31;;;;;;;5.28;3.63;;;;;;;3.97;69.10;94823.50;4153594;28;20046;-52
2022/11/29 00:24:33;;;;;;;5.38;3.30;;;;;;;3.93;68.87;94822.09;4173099;28;20063;-57
2022/11/29 00:26:36;;;;;;;3.80;3.03;;;;;;;3.95;69.07;94822.78;4169504;28;20048;-57
2022/11/29 00:28:37;;;;;;;4.90;3.33;;;;;;;4.02;69.39;94829.19;4165672;28;20092;-55
2022/11/29 00:30:39;;;;;;;4.95;3.10;;;;;;;4.01;68.56;94824.09;4168430;28;20393;-55
2022/11/29 00:32:41;;;;;;;4.57;3.25;;;;;;;3.96;68.55;94823.59;4169075;28;20454;-57
2022/11/29 00:34:42;;;;;;;4.05;3.00;;;;;;;3.91;69.13;94818.78;4172728;28;20076;-56
2022/11/29 00:36:44;;;;;;;5.25;3.25;;;;;;;3.83;68.94;94819.38;4169569;28;20502;-57
2022/11/29 00:38:46;;;;;;;4.20;3.08;;;;;;;3.85;68.97;94816.63;4148843;28;20045;-57
2022/11/29 00:40:51;;;;;;;4.40;3.20;;;;;;;3.65;69.24;94824.13;4164360;28;20045;-58
2022/11/29 00:42:53;;;;;;;3.78;3.00;;;;;;;3.52;69.94;94818.22;4149675;28;20050;-54
2022/11/29 00:44:54;;;;;;;5.78;3.83;;;;;;;3.42;70.69;94825.00;4156907;28;20053;-53
2022/11/29 00:46:56;;;;;;;4.50;3.25;;;;;;;3.44;70.67;94825.72;4174751;28;20065;-53
2022/11/29 00:48:58;;;;;;;4.60;3.38;;;;;;;3.45;70.58;94830.81;4176227;28;20126;-52
2022/11/29 00:51:00;;;;;;;4.72;3.08;;;;;;;3.51;70.41;94826.09;4175523;28;20055;-58
2022/11/29 00:53:01;;;;;;;4.80;3.58;;;;;;;3.57;69.81;94834.28;4173929;28;20064;-58
2022/11/29 00:55:03;;;;;;;4.05;2.95;;;;;;;3.60;70.32;94831.44;4163654;28;20057;-56
2022/11/29 00:57:05;;;;;;;5.47;3.40;;;;;;;3.67;69.91;94830.03;4175495;28;20084;-55
2022/11/29 00:59:06;;;;;;;4.70;3.25;;;;;;;3.68;69.26;94823.94;4175637;28;20138;-53
2022/11/29 01:01:09;;;;;;;4.35;2.97;;;;;;;3.63;69.98;94826.03;4162784;28;20169;-52
2022/11/29 01:03:11;;;;;;;4.20;3.30;;;;;;;3.71;69.95;94827.22;4158929;28;20107;-54
2022/11/29 01:05:12;;;;;;;3.80;2.88;;;;;;;3.71;69.40;94827.22;4160170;28;20487;-53
2022/11/29 01:07:14;;;;;;;4.05;2.95;;;;;;;3.60;70.26;94820.25;4160057;28;20065;-53
2022/11/29 01:09:16;;;;;;;4.97;2.67;;;;;;;3.57;69.69;94823.06;4159546;28;20195;-55
2022/11/29 01:11:23;;;;;;;4.53;2.67;;;;;;;3.45;70.01;94822.22;4153821;28;20054;-56
2022/11/29 01:13:25;;;;;;;4.20;2.95;;;;;;;3.44;70.35;94815.38;4156477;28;20054;-55
2022/11/29 01:15:27;;;;;;;3.65;2.78;;;;;;;3.48;70.23;94812.47;4168785;28;20177;-54
2022/11/29 01:17:29;;;;;;;3.90;2.95;;;;;;;3.56;69.73;94818.84;4176534;28;20544;-56
2022/11/29 01:19:30;;;;;;;3.80;2.70;;;;;;;3.52;70.09;94814.81;4176485;28;20446;-56
2022/11/29 01:21:32;;;;;;;3.70;2.92;;;;;;;3.39;69.94;94812.31;4171621;28;20056;-55
2022/11/29 01:23:35;;;;;;;4.30;2.92;;;;;;;3.43;70.10;94811.97;4160331;28;20430;-53
2022/11/29 01:25:36;;;;;;;4.93;2.83;;;;;;;3.40;70.41;94812.19;4160415;28;20487;-55
2022/11/29 01:27:38;;;;;;;4.25;3.20;;;;;;;3.47;70.27;94800.44;4171726;28;20437;-54
2022/11/29 01:29:40;;;;;;;4.60;3.20;;;;;;;3.39;70.51;94807.13;4174190;28;20057;-56
2022/11/29 01:31:42;;;;;;;4.47;3.00;;;;;;;3.46;70.36;94803.13;4160958;28;20057;-56
2022/11/29 01:33:43;;;;;;;5.57;3.92;;;;;;;3.36;70.83;94797.00;4152851;28;20183;-56
2022/11/29 01:35:53;;;;;;;6.45;4.50;;;;;;;3.37;70.91;94803.81;4145410;28;20552;-56
2022/11/29 01:37:55;;;;;;;8.60;5.10;;;;;;;3.42;71.19;94799.13;4151820;28;20052;-58
2022/11/29 01:39:57;;;;;;;6.70;4.40;;;;;;;3.43;70.91;94793.84;4159959;28;20045;-57
2022/11/29 01:41:59;;;;;;;7.28;4.45;;;;;;;3.48;70.46;94796.06;4160300;28;20110;-54
2022/11/29 01:44:10;;;;;;;6.57;4.30;;;;;;;3.40;70.99;94793.22;4159094;28;20046;-58
2022/11/29 01:46:12;;;;;;;6.20;4.07;;;;;;;3.41;71.24;94798.28;4149148;28;20104;-54
2022/11/29 01:48:13;;;;;;;6.75;4.00;;;;;;;3.39;70.89;94792.41;4168751;28;20057;-54
2022/11/29 01:50:15;;;;;;;6.65;4.00;;;;;;;3.22;70.95;94798.00;4168412;28;20506;-56
2022/11/29 01:52:23;;;;;;;5.93;3.92;;;;;;;3.19;71.43;94791.28;4146133;28;20112;-54
2022/11/29 01:54:26;;;;;;;6.70;4.35;;;;;;;3.25;71.00;94784.84;4157348;28;20053;-53
2022/11/29 01:56:29;;;;;;;7.13;3.67;;;;;;;3.19;71.73;94791.28;4162893;28;20132;-50
2022/11/29 01:58:31;;;;;;;6.55;4.43;;;;;;;3.23;71.46;94784.94;4156502;28;20074;-53
2022/11/29 02:00:33;;;;;;;4.88;3.65;;;;;;;3.14;71.83;94782.19;4159905;28;20133;-51
2022/11/29 02:02:57;;;;;;;4.93;3.50;;;;;;;3.17;71.84;94781.97;4146188;28;20053;-50
2022/11/29 02:04:59;;;;;;;5.35;3.42;;;;;;;3.17;71.32;94775.03;4153692;28;20068;-53
2022/11/29 02:07:02;;;;;;;5.70;3.17;;;;;;;3.12;71.29;94781.47;4154284;28;20057;-52
2022/11/29 02:09:04;;;;;;;5.75;3.47;;;;;;;2.94;72.20;94781.06;4167736;28;20060;-53
2022/11/29 02:11:09;;;;;;;5.07;3.70;;;;;;;3.11;71.83;94777.25;4166474;28;20057;-52
2022/11/29 02:13:24;;;;;;;5.00;3.67;;;;;;;3.18;71.22;94779.25;4158000;28;20525;-52
2022/11/29 02:15:42;;;;;;;4.18;3.28;;;;;;;3.16;70.69;94776.00;4171587;28;20080;-52
2022/11/29 02:18:04;;;;;;;4.88;3.63;;;;;;;2.93;71.32;94782.81;4152750;28;20201;-55
2022/11/29 02:20:15;;;;;;;5.22;3.47;;;;;;;2.87;72.07;94780.69;4161047;28;20056;-52
2022/11/29 02:22:28;;;;;;;4.10;3.13;;;;;;;2.84;71.86;94780.91;4162974;28;20057;-52
2022/11/29 02:24:39;;;;;;;4.82;3.45;;;;;;;2.74;72.05;94785.09;4151698;28;20050;-51
2022/11/29 02:27:05;;;;;;;4.78;3.60;;;;;;;2.64;72.75;94779.72;4164403;28;20060;-50
2022/11/29 02:30:00;;;;;;;4.32;3.53;;;;;;;2.62;73.11;94772.09;4151387;28;20060;-54
2022/11/29 02:32:16;;;;;;;5.97;3.53;;;;;;;2.74;72.81;94779.91;4160116;28;20532;-52
2022/11/29 02:34:50;;;;;;;6.68;3.85;;;;;;;2.59;73.18;94780.06;4157036;28;20472;-52
2022/11/29 02:37:05;;;;;;;7.18;3.97;;;;;;;2.64;73.19;94780.53;4156066;28;20056;-53
2022/11/29 02:39:15;;;;;;;5.38;3.60;;;;;;;2.60;73.20;94781.72;4167253;28;20354;-51
2022/11/29 02:41:54;;;;;;;5.60;3.80;;;;;;;2.71;72.88;94783.53;4163227;28;20558;-56
2022/11/29 02:44:41;;;;;;;6.10;3.80;;;;;;;2.84;72.54;94781.72;4160991;28;20054;-53
2022/11/29 02:47:07;;;;;;;5.15;3.97;;;;;;;2.94;72.04;94787.06;4159643;28;20088;-50
2022/11/29 02:49:49;;;;;;;5.35;3.63;;;;;;;3.09;72.39;94779.94;4151919;28;20103;-52
2022/11/29 02:52:02;;;;;;;5.07;3.80;;;;;;;3.19;71.41;94780.09;4150774;28;20053;-53
2022/11/29 02:54:31;;;;;;;5.63;4.03;;;;;;;3.00;71.86;94778.84;4147241;28;20073;-54
2022/11/29 02:56:55;;;;;;;5.10;3.63;;;;;;;2.87;72.31;94786.66;4153565;28;20383;-49
2022/11/29 02:59:13;;;;;;;5.43;3.80;;;;;;;2.83;72.75;94785.22;4145778;28;20457;-51
2022/11/29 03:01:17;;;;;;;5.00;3.67;;;;;;;2.85;72.86;94783.38;4154041;28;20089;-51
2022/11/29 03:03:26;;;;;;;5.75;3.30;;;;;;;2.93;72.81;94779.41;4159937;28;20236;-51
2022/11/29 03:05:37;;;;;;;5.05;3.40;;;;;;;2.89;72.41;94783.16;4160650;28;20098;-52
2022/11/29 03:07:45;;;;;;;6.20;3.40;;;;;;;2.94;72.25;94781.06;4160601;28;20046;-52
2022/11/29 03:10:08;;;;;;;5.57;3.13;;;;;;;3.04;71.94;94782.88;4170828;28;20056;-53
2022/11/29 03:12:16;;;;;;;4.22;3.40;;;;;;;3.06;72.00;94787.94;4162829;28;20629;-53
2022/11/29 03:14:24;;;;;;;4.53;3.45;;;;;;;3.02;71.72;94799.44;4160577;28;20461;-49
2022/11/29 03:16:44;;;;;;;4.65;3.45;;;;;;;3.01;72.27;94793.47;4176346;28;20076;-55
2022/11/29 03:19:22;;;;;;;4.65;3.42;;;;;;;3.01;72.20;94790.00;4155989;28;20260;-55
2022/11/29 03:21:30;;;;;;;8.48;3.28;;;;;;;3.04;72.18;94797.56;4165707;28;20102;-52
2022/11/29 03:23:50;;;;;;;4.63;3.28;;;;;;;2.94;72.54;94791.41;4155973;28;20482;-53
2022/11/29 03:25:54;;;;;;;4.93;3.00;;;;;;;2.91;72.50;94794.22;4160451;28;20458;-54
2022/11/29 03:28:12;;;;;;;3.63;2.90;;;;;;;2.97;72.56;94791.16;4161170;28;20057;-52
2022/11/29 03:30:17;;;;;;;5.50;3.53;;;;;;;2.93;72.33;94797.53;4161752;28;20168;-51
2022/11/29 03:32:53;;;;;;;5.35;2.72;;;;;;;2.93;72.18;94795.75;4159824;28;20052;-53
2022/11/29 03:35:09;;;;;;;4.30;3.20;;;;;;;3.00;72.47;94796.16;4160391;28;20132;-51
2022/11/29 03:37:19;;;;;;;4.75;3.50;;;;;;;3.07;71.97;94802.53;4159583;28;20115;-52
2022/11/29 03:39:48;;;;;;;5.68;3.25;;;;;;;3.19;71.86;94793.88;4158605;28;20057;-52
2022/11/29 03:41:59;;;;;;;4.55;2.97;;;;;;;3.26;71.50;94800.25;4153235;28;20050;-51
2022/11/29 03:44:10;;;;;;;4.53;3.33;;;;;;;3.36;71.13;94800.41;4161479;28;20060;-53
2022/11/29 03:46:20;;;;;;;4.78;3.10;;;;;;;3.36;70.74;94800.41;4162635;28;20533;-50
2022/11/29 03:48:30;;;;;;;4.40;2.80;;;;;;;3.44;71.12;94800.69;4158937;28;20052;-48
2022/11/29 03:50:38;;;;;;;3.85;2.63;;;;;;;3.56;70.53;94798.94;4160288;28;20075;-49
2022/11/29 03:52:51;;;;;;;4.03;2.85;;;;;;;3.66;70.30;94793.91;4160336;28;20053;-52
2022/11/29 03:55:00;;;;;;;5.88;2.60;;;;;;;3.79;70.42;94799.81;4147953;28;20049;-52
2022/11/29 03:57:02;;;;;;;4.40;2.92;;;;;;;3.93;69.57;94790.97;4160732;28;20088;-54
2022/11/29 03:59:28;;;;;;;6.75;2.80;;;;;;;4.03;69.05;94797.13;4161014;28;20124;-50
2022/11/29 04:02:00;;;;;;;3.75;2.50;;;;;;;4.17;69.15;94798.66;4161623;28;20053;-54
2022/11/29 04:04:04;;;;;;;3.30;2.35;;;;;;;4.26;68.18;94797.97;4161947;28;20156;-51
2022/11/29 04:06:20;;;;;;;3.20;2.60;;;;;;;4.34;67.96;94792.16;4161910;28;20386;-55
2022/11/29 04:08:59;;;;;;;3.85;2.47;;;;;;;4.34;68.16;94794.75;4152727;28;20393;-54
2022/11/29 04:11:19;;;;;;;3.72;2.55;;;;;;;4.16;68.01;94797.00;4151988;28;20089;-51
2022/11/29 04:13:36;;;;;;;3.55;2.40;;;;;;;4.03;68.83;94798.91;4153243;28;20482;-49
2022/11/29 04:15:55;;;;;;;4.13;2.95;;;;;;;3.86;68.83;94803.56;4171418;28;20051;-51
2022/11/29 04:18:43;;;;;;;4.85;2.78;;;;;;;3.77;69.71;94800.88;4147699;28;20079;-52
2022/11/29 04:21:00;;;;;;;3.78;2.50;;;;;;;3.53;70.05;94803.50;4170779;28;20052;-54
2022/11/29 04:23:29;;;;;;;4.57;2.90;;;;;;;3.57;70.63;94810.97;4175333;28;20567;-52
2022/11/29 04:25:54;;;;;;;3.90;2.50;;;;;;;3.67;70.56;94804.13;4174564;28;20053;-52
2022/11/29 04:28:08;;;;;;;3.58;2.63;;;;;;;3.75;69.52;94808.75;4175447;28;20052;-49
2022/11/29 04:30:23;;;;;;;4.07;2.95;;;;;;;3.88;70.01;94816.44;4176207;28;20141;-52
2022/11/29 04:32:30;;;;;;;4.65;2.83;;;;;;;3.99;69.25;94816.44;4171406;28;20482;-51
2022/11/29 04:34:56;;;;;;;5.35;2.90;;;;;;;4.13;68.89;94807.63;4166950;28;20040;-51
2022/11/29 04:37:28;;;;;;;4.03;2.83;;;;;;;4.22;68.32;94800.91;4173854;28;20102;-53
2022/11/29 04:39:45;;;;;;;4.55;2.92;;;;;;;4.31;68.74;94806.19;4160059;28;20053;-49
2022/11/29 04:42:18;;;;;;;4.00;2.55;;;;;;;4.39;67.63;94805.63;4148553;28;20096;-53
2022/11/29 04:44:30;;;;;;;3.97;2.50;;;;;;;4.33;68.18;94798.31;4146254;28;20132;-51
2022/11/29 04:46:38;;;;;;;4.82;3.08;;;;;;;4.36;67.80;94811.03;4144350;28;20125;-53
2022/11/29 04:48:59;;;;;;;5.53;3.03;;;;;;;4.38;67.80;94803.94;4145658;28;20056;-50
2022/11/29 04:51:38;;;;;;;3.60;2.72;;;;;;;4.42;67.78;94802.78;4166897;28;20057;-50
2022/11/29 04:54:06;;;;;;;4.53;3.00;;;;;;;4.48;68.17;94804.91;4173393;28;20060;-50
2022/11/29 04:56:32;;;;;;;3.85;3.08;;;;;;;4.51;67.09;94798.63;4167664;28;20065;-52
2022/11/29 04:58:41;;;;;;;3.78;3.00;;;;;;;4.51;67.43;94796.88;4170448;28;20080;-51
2022/11/29 05:01:05;;;;;;;4.82;3.22;;;;;;;4.51;67.51;94796.88;4175761;28;20096;-51
2022/11/29 05:03:16;;;;;;;4.82;3.25;;;;;;;4.52;68.08;94789.94;4171972;28;20067;-53
2022/11/29 05:05:41;;;;;;;5.38;3.00;;;;;;;4.38;67.02;94796.16;4173819;28;20079;-55
2022/11/29 05:07:51;;;;;;;7.00;3.40;;;;;;;4.37;68.47;94797.13;4162262;28;20497;-50
2022/11/29 05:10:05;;;;;;;6.25;3.95;;;;;;;4.28;68.03;94795.22;4170723;28;20058;-52
2022/11/29 05:12:26;;;;;;;6.95;3.78;;;;;;;4.17;68.66;94795.22;4161005;28;20137;-50
2022/11/29 05:14:37;;;;;;;6.07;3.53;;;;;;;4.00;69.39;94799.97;4161317;28;20053;-51
2022/11/29 05:16:54;;;;;;;7.10;3.80;;;;;;;3.79;69.84;94805.00;4154092;28;20068;-55
2022/11/29 05:19:03;;;;;;;6.32;3.63;;;;;;;3.64;71.29;94801.78;4160579;28;20126;-54
2022/11/29 05:21:41;;;;;;;5.82;4.10;;;;;;;3.46;71.42;94801.38;4163242;28;20045;-52
2022/11/29 05:23:49;;;;;;;8.27;4.35;;;;;;;3.35;71.71;94803.09;4152928;28;20050;-54
2022/11/29 05:25:59;;;;;;;7.03;4.38;;;;;;;3.38;71.57;94806.31;4154938;28;20332;-53
2022/11/29 05:28:32;;;;;;;7.57;4.22;;;;;;;3.37;71.79;94794.28;4163222;28;20088;-51
2022/11/29 05:30:46;;;;;;;5.55;4.20;;;;;;;3.31;71.80;94799.91;4165156;28;20045;-54
2022/11/29 05:33:10;;;;;;;7.80;3.58;;;;;;;3.39;71.71;94802.75;4155732;28;20428;-53
2022/11/29 05:35:45;;;;;;;8.20;4.50;;;;;;;3.29;72.22;94799.19;4163682;28;20081;-52
2022/11/29 05:37:47;;;;;;;;;;;;;;;3.37;72.21;94798.63;4150062;28;20429;-53
2022/11/29 05:40:02;;;;;;;6.78;4.30;;;;;;;3.44;72.09;94803.25;4160427;28;19927;-51
2022/11/29 05:42:23;;;;;;;7.03;4.68;;;;;;;3.35;72.19;94805.69;4162322;28;20042;-53
2022/11/29 05:44:36;;;;;;;8.07;4.90;;;;;;;3.47;71.88;94817.75;4171119;28;20179;-50
2022/11/29 05:46:53;;;;;;;19.60;4.63;;;;;;;3.28;72.27;94805.31;4175469;28;20053;-53
2022/11/29 05:49:04;;;;;;;9.65;5.20;;;;;;;3.33;72.34;94810.97;4170735;28;20057;-52
2022/11/29 05:51:35;;;;;;;11.57;5.75;;;;;;;3.43;72.04;94803.38;4172670;28;20123;-50
2022/11/29 05:54:09;;;;;;;7.65;4.65;;;;;;;3.58;71.80;94801.41;4178052;28;20048;-53
2022/11/29 05:56:39;;;;;;;8.80;4.85;;;;;;;3.66;71.48;94799.09;4179567;28;20451;-52
2022/11/29 05:58:58;;;;;;;10.32;4.78;;;;;;;3.74;71.32;94795.91;4151461;28;20108;-55
2022/11/29 06:01:13;;;;;;;7.65;4.68;;;;;;;3.75;70.73;94803.56;4176382;28;20067;-48
2022/11/29 06:03:23;;;;;;;8.18;5.10;;;;;;;3.77;70.77;94798.28;4149758;28;20042;-51
2022/11/29 06:05:31;;;;;;;8.07;4.68;;;;;;;3.67;71.31;94808.50;4171949;28;20525;-53
2022/11/29 06:07:50;;;;;;;9.25;4.32;;;;;;;3.68;70.94;94804.97;4176583;28;20056;-56
2022/11/29 06:09:59;;;;;;;7.40;4.43;;;;;;;3.74;70.94;94812.25;4167095;28;20127;-54
2022/11/29 06:12:11;;;;;;;7.75;5.10;;;;;;;3.75;71.26;94813.13;4170906;28;20067;-54
2022/11/29 06:14:50;;;;;;;8.23;4.80;;;;;;;3.69;70.93;94810.03;4161889;28;20103;-51
2022/11/29 06:17:14;;;;;;;7.18;5.00;;;;;;;3.63;70.70;94800.13;4162726;28;20431;-51
2022/11/29 06:19:22;;;;;;;7.32;5.15;;;;;;;3.50;71.23;94804.56;4157272;28;20046;-52
2022/11/29 06:21:39;;;;;;;11.82;5.00;;;;;;;3.54;71.87;94806.00;4162921;28;20128;-55
2022/11/29 06:23:47;;;;;;;10.00;4.97;;;;;;;3.54;71.27;94806.00;4161872;28;20085;-55
2022/11/29 06:25:52;;;;;;;8.75;4.35;;;;;;;3.46;71.39;94811.75;4147194;28;20054;-52
2022/11/29 06:28:05;;;;;;;9.18;4.40;;;;;;;3.39;71.59;94805.34;4153207;28;20084;-53
2022/11/29 06:30:08;;;;;;;7.87;4.23;;;;;;;3.39;72.18;94807.94;4161842;28;20054;-57
2022/11/29 06:32:24;;;;;;;6.55;4.78;;;;;;;3.38;72.14;94797.72;4162207;28;20298;-52
2022/11/29 06:34:34;;;;;;;6.82;4.28;;;;;;;3.47;72.25;94799.63;4153700;28;20046;-55
2022/11/29 06:36:48;;;;;;;9.98;4.90;;;;;;;3.44;72.15;94805.00;4158116;28;20049;-50
2022/11/29 06:38:50;;;;;;;8.38;5.10;;;;;;;3.36;71.96;94808.19;4158279;28;20077;-54
2022/11/29 06:40:53;;;;;;;7.00;5.00;;;;;;;3.31;72.61;94805.06;4162508;28;20411;-52
2022/11/29 06:43:02;;;;;;;11.65;4.90;;;;;;;3.33;72.24;94810.16;4161356;28;20560;-53
2022/11/29 06:45:05;;;;;;;7.93;4.93;;;;;;;3.29;72.22;94806.94;4162140;28;20405;-54
2022/11/29 06:47:43;;;;;;;10.73;5.15;;;;;;;3.22;72.72;94810.94;4162221;28;20049;-50
2022/11/29 06:49:57;;;;;;;9.20;4.70;;;;;;;3.08;73.13;94819.72;4159557;28;20127;-53
2022/11/29 06:51:59;;;;;;;;;;;;;;;3.17;73.22;94813.88;4155552;28;20053;-53
2022/11/29 06:54:17;;;;;;;12.23;7.25;;;;;;;3.23;73.16;94813.44;4169521;28;20346;-51
2022/11/29 06:56:31;;;;;;;13.38;6.78;;;;;;;3.36;72.82;94821.13;4148864;28;20077;-54
2022/11/29 06:58:59;;;;;;;12.27;7.03;;;;;;;3.36;72.63;94818.53;4166711;28;20044;-56
2022/11/29 07:01:28;;;;;;;10.20;6.45;;;;;;;3.34;72.63;94819.59;4175746;28;20498;-54
2022/11/29 07:03:45;;;;;;;13.88;7.15;;;;;;;3.40;73.30;94821.72;4159839;28;20056;-52
2022/11/29 07:05:47;;;;;;;9.57;6.28;;;;;;;3.49;72.37;94827.06;4165303;28;20449;-55
2022/11/29 07:07:51;;;;;;;12.45;7.13;;;;;;;3.48;72.11;94817.66;4176528;28;20053;-53
2022/11/29 07:09:58;;;;;;;11.98;6.63;;;;;;;3.57;72.79;94820.47;4176248;28;20077;-52
2022/11/29 07:12:00;;;;;;;10.65;6.05;;;;;;;3.69;72.16;94822.97;4162318;28;20045;-51
2022/11/29 07:14:02;;;;;;;16.48;6.97;;;;;;;3.75;71.60;94828.66;4162553;28;20053;-56
2022/11/29 07:16:14;;;;;;;8.55;6.28;;;;;;;3.81;71.13;94825.63;4177078;28;20061;-53
2022/11/29 07:18:23;;;;;;;10.35;5.93;;;;;;;3.72;71.42;94828.88;4177918;28;20084;-50
2022/11/29 07:21:05;;;;;;;8.35;5.97;;;;;;;3.83;71.55;94832.31;4178206;28;20055;-52
2022/11/29 07:23:35;;;;;;;10.82;5.85;;;;;;;3.89;70.32;94831.03;4160681;28;20045;-55
2022/11/29 07:25:47;;;;;;;9.43;5.68;;;;;;;3.81;71.24;94834.22;4175459;28;20097;-55
2022/11/29 07:28:04;;;;;;;9.43;6.80;;;;;;;3.69;70.83;94835.94;4174844;28;20142;-55
2022/11/29 07:30:12;;;;;;;8.82;5.40;;;;;;;3.78;71.94;94834.41;4174982;28;20053;-52
2022/11/29 07:32:33;;;;;;;12.95;6.47;;;;;;;3.83;71.56;94831.47;4173251;28;20056;-53
2022/11/29 07:34:48;;;;;;;10.15;6.13;;;;;;;3.95;71.04;94827.97;4177001;28;20059;-50
2022/11/29 07:37:05;;;;;;;14.82;7.20;;;;;;;4.08;70.88;94831.28;4165723;28;20041;-52
2022/11/29 07:39:28;;;;;;;12.38;6.10;;;;;;;4.17;70.23;94828.94;4159870;28;20121;-54
2022/11/29 07:41:54;;;;;;;9.98;5.30;;;;;;;4.25;69.42;94819.63;4177058;28;20482;-52
2022/11/29 07:44:02;;;;;;;8.85;5.47;;;;;;;4.30;68.94;94814.09;4171341;28;20081;-54
2022/11/29 07:46:04;;;;;;;4.95;3.30;;;;;;;4.23;68.17;94823.28;4167542;28;20192;-50
2022/11/29 07:48:06;;;;;;;5.20;3.47;;;;;;;4.28;68.52;94819.41;4160806;28;20054;-50
2022/11/29 07:50:08;;;;;;;9.10;5.45;;;;;;;4.38;68.46;94821.28;4164699;28;20046;-56
2022/11/29 07:52:14;;;;;;;8.90;3.58;;;;;;;4.44;67.06;94821.63;4169525;28;20080;-51
2022/11/29 07:54:17;;;;;;;8.68;4.15;;;;;;;4.48;67.85;94823.06;4169739;28;20057;-52
2022/11/29 07:56:19;;;;;;;8.68;4.22;;;;;;;4.52;66.80;94818.47;4174790;28;20516;-53
2022/11/29 07:58:21;;;;;;;5.65;3.40;;;;;;;4.64;67.10;94817.50;4175269;28;20468;-50
2022/11/29 08:00:23;;;;;;;6.13;3.35;;;;;;;4.71;66.63;94817.81;4176325;28;20139;-52
2022/11/29 08:02:29;;;;;;;6.82;3.78;;;;;;;4.56;66.88;94819.88;4173313;28;20049;-52
2022/11/29 08:04:31;;;;;;;6.43;3.28;;;;;;;4.68;67.35;94815.50;4172970;28;20045;-55
2022/11/29 08:06:33;;;;;;;3.85;2.70;;;;;;;4.81;66.47;94823.94;4166259;28;20049;-53
2022/11/29 08:08:35;;;;;;;5.45;2.80;;;;;;;4.92;66.12;94826.53;4175011;28;20133;-52
2022/11/29 08:10:44;;;;;;;6.53;3.17;;;;;;;5.00;65.62;94819.91;4169601;28;20065;-51
2022/11/29 08:12:48;;;;;;;5.90;2.42;;;;;;;5.02;64.87;94823.22;4169319;28;20065;-50
2022/11/29 08:14:50;;;;;;;4.40;3.00;;;;;;;4.93;65.03;94830.78;4166362;28;20045;-53
2022/11/29 08:16:52;;;;;;;3.85;2.53;;;;;;;4.87;65.30;94827.84;4168011;28;20366;-56
2022/11/29 08:18:54;;;;;;;6.03;2.50;;;;;;;4.96;65.88;94831.50;4161104;28;20433;-51
2022/11/29 08:20:55;;;;;;;5.22;3.00;;;;;;;4.84;65.24;94828.91;4148085;28;20060;-58
2022/11/29 08:22:58;;;;;;;4.95;2.95;;;;;;;4.70;66.24;94821.38;4161459;28;20164;-55
2022/11/29 08:25:00;;;;;;;5.03;2.78;;;;;;;4.74;66.67;94833.19;4161407;28;20123;-59
2022/11/29 08:27:02;;;;;;;3.85;2.60;;;;;;;4.77;66.23;94827.72;4160897;28;20141;-54
2022/11/29 08:29:03;;;;;;;5.75;2.97;;;;;;;4.88;66.27;94832.06;4159754;28;20074;-55
2022/11/29 08:31:07;;;;;;;4.47;2.92;;;;;;;4.85;66.20;94825.38;4161113;28;20068;-56
2022/11/29 08:33:09;;;;;;;5.93;3.10;;;;;;;4.80;66.86;94834.47;4160378;28;20140;-53
2022/11/29 08:35:11;;;;;;;9.35;3.30;;;;;;;4.68;66.49;94841.44;4160718;28;20111;-51
2022/11/29 08:37:12;;;;;;;3.85;2.53;;;;;;;4.65;67.20;94828.72;4160975;28;20053;-52
2022/11/29 08:39:14;;;;;;;4.85;2.95;;;;;;;4.65;67.05;94831.31;4152037;28;20165;-53
2022/11/29 08:41:16;;;;;;;5.90;2.88;;;;;;;4.79;67.22;94835.41;4148036;28;20593;-50
2022/11/29 08:43:18;;;;;;;5.18;3.00;;;;;;;4.95;67.07;94841.06;4159168;28;20054;-56
2022/11/29 08:45:19;;;;;;;6.85;3.40;;;;;;;5.06;65.85;94832.41;4176155;28;20080;-55
2022/11/29 08:47:36;;;;;;;6.28;3.50;;;;;;;4.90;65.92;94838.81;4171126;28;20469;-55
2022/11/29 08:49:59;;;;;;;11.38;5.38;;;;;;;4.87;66.59;94836.44;4172262;28;20120;-53
2022/11/29 08:54:20;;;;;;;4.88;3.15;;;;;;;4.71;66.96;94838.59;4176930;28;20465;-49
2022/11/29 08:56:21;;;;;;;4.38;3.03;;;;;;;4.54;67.91;94836.50;4176641;28;20049;-53
2022/11/29 08:58:44;;;;;;;3.97;2.55;;;;;;;4.42;68.42;94833.91;4161733;28;20048;-52
2022/11/29 09:00:46;;;;;;;6.55;2.92;;;;;;;4.17;68.92;94842.72;4146812;28;20108;-57
2022/11/29 09:02:48;;;;;;;4.13;3.03;;;;;;;4.13;68.94;94843.94;4161552;28;20052;-51
2022/11/29 09:04:49;;;;;;;6.20;3.13;;;;;;;4.12;69.70;94842.25;4164562;28;20055;-53
2022/11/29 09:06:51;;;;;;;5.22;3.55;;;;;;;4.21;69.31;94838.16;4164710;28;20116;-56
2022/11/29 09:08:55;;;;;;;6.63;3.17;;;;;;;4.24;68.75;94840.53;4164160;28;20494;-53
2022/11/29 09:10:56;;;;;;;;;;;;;;;4.34;69.24;94825.88;4159842;28;20510;-54
2022/11/29 09:12:58;;;;;;;6.93;4.00;;;;;;;4.09;69.47;94832.94;4163002;28;19979;-54
2022/11/29 09:15:00;;;;;;;6.22;3.63;;;;;;;4.01;69.87;94831.88;4164747;28;20089;-54
2022/11/29 09:17:01;;;;;;;5.90;3.83;;;;;;;4.10;70.46;94824.22;4163412;28;20061;-54
2022/11/29 09:19:04;;;;;;;4.85;3.78;;;;;;;4.33;69.76;94829.44;4165757;28;20057;-55
2022/11/29 09:21:11;;;;;;;10.70;4.68;;;;;;;4.31;68.93;94826.13;4165024;28;20065;-52
2022/11/29 09:23:12;;;;;;;11.48;5.20;;;;;;;4.34;68.91;94832.84;4155493;28;20407;-52
2022/11/29 09:25:14;;;;;;;5.82;3.65;;;;;;;4.41;69.30;94821.03;4162868;28;20061;-49
2022/11/29 09:27:16;;;;;;;6.32;3.97;;;;;;;4.55;68.12;94815.63;4165071;28;20127;-52
2022/11/29 09:29:18;;;;;;;11.93;3.92;;;;;;;4.66;68.28;94813.00;4156747;28;20057;-52
2022/11/29 09:31:20;;;;;;;6.15;4.15;;;;;;;4.57;68.48;94818.91;4158304;28;20053;-53
2022/11/29 09:33:22;;;;;;;5.55;3.95;;;;;;;4.62;68.20;94813.38;4164267;28;20053;-53
2022/11/29 09:35:24;;;;;;;6.90;4.13;;;;;;;4.64;68.46;94811.47;4164610;28;20045;-56
2022/11/29 09:37:25;;;;;;;7.40;4.82;;;;;;;4.66;67.84;94805.22;4157691;28;20134;-52
2022/11/29 09:39:27;;;;;;;6.82;4.63;;;;;;;4.81;68.04;94805.78;4149220;28;20050;-53
2022/11/29 09:41:41;;;;;;;8.43;4.63;;;;;;;5.01;68.30;94800.78;4155305;28;20053;-50
2022/11/29 09:44:26;;;;;;;6.50;4.45;;;;;;;5.18;67.22;94800.25;4176857;28;20048;-53
2022/11/29 09:46:45;;;;;;;9.10;4.60;;;;;;;5.23;66.55;94795.53;4167503;28;20486;-51
2022/11/29 09:49:22;;;;;;;8.38;5.13;;;;;;;5.19;66.53;94794.13;4151547;28;20092;-52
2022/11/29 09:51:48;;;;;;;8.73;5.35;;;;;;;5.25;67.17;94785.03;4160777;28;20108;-52
2022/11/29 09:54:10;;;;;;;8.05;4.68;;;;;;;5.24;66.91;94785.94;4141769;28;20056;-53
2022/11/29 09:56:28;;;;;;;8.10;5.82;;;;;;;5.13;67.50;94786.81;4158483;28;20057;-55
2022/11/29 09:58:35;;;;;;;9.30;5.15;;;;;;;5.23;66.83;94789.50;4149113;28;20591;-50
2022/11/29 10:00:45;;;;;;;13.48;5.45;;;;;;;5.37;66.66;94789.19;4157924;28;20053;-51
2022/11/29 10:02:52;;;;;;;10.95;5.78;;;;;;;5.39;66.52;94782.09;4165074;28;20123;-51
2022/11/29 10:04:59;;;;;;;7.43;4.60;;;;;;;5.33;66.57;94780.84;4153285;28;20057;-52
2022/11/29 10:07:18;;;;;;;8.23;5.00;;;;;;;5.16;67.68;94776.16;4163243;28;20060;-52
2022/11/29 10:09:37;;;;;;;10.10;4.55;;;;;;;5.01;67.81;94770.47;4164644;28;20056;-51
2022/11/29 10:11:55;;;;;;;9.23;5.85;;;;;;;5.04;67.98;94778.00;4146673;28;20054;-53
2022/11/29 10:14:20;;;;;;;12.18;6.47;;;;;;;4.84;68.18;94766.63;4160269;28;20072;-54
2022/11/29 10:16:35;;;;;;;9.10;5.63;;;;;;;4.82;68.76;94771.13;4156244;28;20075;-53
2022/11/29 10:18:44;;;;;;;7.72;5.40;;;;;;;4.88;68.55;94762.84;4168865;28;20083;-58
2022/11/29 10:20:47;;;;;;;7.22;4.88;;;;;;;4.82;68.45;94768.50;4163055;28;20077;-56
2022/11/29 10:22:55;;;;;;;9.57;5.32;;;;;;;4.93;68.31;94760.69;4161201;28;20145;-55
2022/11/29 10:24:59;;;;;;;6.55;4.57;;;;;;;4.80;68.58;94762.63;4158282;28;20061;-52
2022/11/29 10:27:04;;;;;;;10.45;4.90;;;;;;;4.83;69.60;94764.97;4163626;28;20123;-54